메인 페이지
METAR-TAF:

METAR-TAF

공항 :

파고파고, 미국령 군소 제도

위도: 14-20S, 경도: 170-43W, 고도: 3m

현재 날씨관측

예보는 20분 전, 02:50시(UTC)에 발표되었습니다.
남동12kt
온도 29°C
습도 84%
기압 1010 hPa
시정: 19.3km
고도 1800ft 상공 구름 보통, 타워링 적운.

METAR: NSTU 210250Z 13012KT 12SM SCT018TCU 29/26 A2983 RMK SLP103 8/200 T02940260 56015

시각: 16:10 (03:10 UTC)

예보

예보는 3 시간 40분 전, 23:30시(UTC)에 발표되었습니다.
예보 대상 시간: 21일 00시부터 21일 24시까지 (UTC)
동남동11kt
시정: 10km
고도 2000ft 상공 구름 보통
고도 4000ft 상공 구름 보통

TAF: NSTU 202330Z 2100/2124 12011KT P6SM SCT020 SCT040

4,000개 이상의 공항 관측 자료 및 예보 (METAR 및 TAF 보고).

지도상에서 검색 가능한 기상관측소가 노란 점과 빨간 점으로 표시되어 있습니다.

기상관측소 명을 보려면 표시 위로 마우스를 이동하세요.

날씨 관측과 예보를 보려면 클릭하세요.

지도 변경 : 확대하려면 엑스 표시가 있는 녹색 버튼, 축소하려면 빼기 표시가 있는 녹색 버튼, 다음 페이지의 지도를 보려면 녹색 화살표를 클릭하세요.


METAR-TAF: